Stations météo

Publicité
Besancon, France (7288): Température de l'air & dewpoint: 13.04.2019 02:00:00 - 19.04.2019 02:00:00 (CEST)Besancon, France (7288): Température de l'air 5cm: 13.04.2019 02:00:00 - 19.04.2019 02:00:00 (CEST)Besancon, France (7288): Température de l'air -20cm & Température de l'air -100cm: 13.04.2019 02:00:00 - 19.04.2019 02:00:00 (CEST)Besancon, France (7288): Vitesse du vent & gusts: 13.04.2019 02:00:00 - 19.04.2019 02:00:00 (CEST)Besancon, France (7288): Direction du vent: 13.04.2019 02:00:00 - 19.04.2019 02:00:00 (CEST)Besancon, France (7288): reduced air pressure: 13.04.2019 02:00:00 - 19.04.2019 02:00:00 (CEST)Besancon, France (7288): Ensoleillement: 13.04.2019 02:00:00 - 19.04.2019 02:00:00 (CEST)Besancon, France (7288): Quantités de précipitations: 13.04.2019 02:00:00 - 19.04.2019 02:00:00 (CEST)
Date & Time tt [°C] td [°C] tt 5cm [°C] tt -20cm [°C] tt -100cm [°C] ff [km/h] ff [knt] fx [km/h] fx [knt] dd ppp [hPa] sd [min] rr [mm]
19.04.2019 02:00:00 11,5 6,2 6,0 13,1 9,9 2 1 3 2 NNE 1022,6 0 0,0
19.04.2019 01:00:00 12,8 5,9 7,0 13,2 9,9 0 0 7 4 N 1022,2 0 0,0
19.04.2019 00:00:00 13,4 5,8 7,1 13,2 9,9 2 1 4 2 NNE 1021,7 0 0,0
18.04.2019 23:00:00 14,8 5,8 8,3 13,2 9,9 0 0 7 4 N 1020,9 0 0,0
18.04.2019 22:00:00 16,7 5,6 12,0 13,1 9,9 0 0 8 4 N 1020,2 0 0,0
18.04.2019 21:00:00 17,3 5,9 12,1 13,0 9,9 2 1 9 5 NE 1019,7 5 0,0
18.04.2019 20:00:00 20,0 4,1 16,6 12,9 9,9 0 0 16 9 N 1018,9 55 0,0
18.04.2019 19:00:00 21,8 4,8 23,1 12,7 9,8 2 1 21 11 ENE 1018,3 55 0,0
18.04.2019 18:00:00 22,2 4,7 25,7 12,5 9,8 8 4 23 13 NNE 1018,0 60 0,0
18.04.2019 17:00:00 22,5 5,0 27,7 12,3 9,8 11 6 26 14 NNE 1017,6 60 0,0
18.04.2019 16:00:00 22,6 5,1 28,1 11,9 9,8 13 7 22 12 NNE 1017,6 60 0,0
18.04.2019 15:00:00 22,3 5,7 31,6 11,7 9,8 10 6 25 14 N 1017,8 60 0,0
18.04.2019 14:00:00 22,2 6,8 32,3 11,5 9,8 8 4 25 14 NNE 1018,1 60 0,0
18.04.2019 13:00:00 20,8 6,7 29,9 11,4 9,8 9 5 20 11 NNE 1018,6 60 0,0
18.04.2019 12:00:00 19,8 6,5 27,6 11,4 9,8 6 4 23 12 NNE 1019,2 60 0,0
18.04.2019 11:00:00 18,1 6,9 23,9 11,3 9,8 6 3 19 11 NE 1019,9 55 0,0
18.04.2019 10:00:00 15,9 8,1 18,6 11,4 9,8 3 1 12 7 NNE 1020,2 57 0,0
18.04.2019 09:00:00 12,6 8,5 8,3 11,5 9,8 3 2 8 5 NE 1020,5 60 0,0
18.04.2019 08:00:00 9,0 7,8 5,2 11,6 9,8 0 0 4 2 N 1021,0 54 0,0
18.04.2019 07:00:00 8,1 7,2 4,6 11,7 9,8 0 0 5 3 N 1020,7 0 0,0
18.04.2019 06:00:00 8,1 7,0 4,0 11,8 9,8 2 1 4 2 NNE 1020,5 0 0,0
18.04.2019 05:00:00 8,2 7,0 3,9 11,9 9,8 0 0 4 2 N 1020,5 0 0,0
18.04.2019 04:00:00 9,0 7,3 4,0 11,9 9,8 3 1 6 3 NNE 1020,5 0 0,0
18.04.2019 03:00:00 10,5 7,6 5,1 12,0 9,8 0 0 13 7 N 1020,4 0 0,0
18.04.2019 02:00:00 11,3 8,0 6,0 12,2 9,8 0 0 5 3 N 1019,7 0 0,0
18.04.2019 01:00:00 11,8 7,9 6,9 12,1 9,8 2 1 12 7 ENE 1019,3 0 0,0
18.04.2019 00:00:00 13,0 7,7 9,7 12,2 9,8 2 1 16 9 NE 1018,9 0 0,0
17.04.2019 23:00:00 13,5 7,5 9,4 12,2 9,7 4 2 13 7 ENE 1018,8 0 0,0
17.04.2019 22:00:00 13,9 7,4 8,7 12,1 9,8 2 1 14 7 ENE 1018,8 0 0,0
17.04.2019 21:00:00 14,8 7,6 9,7 12,1 9,8 3 2 18 10 NE 1018,1 4 0,0
17.04.2019 20:00:00 17,0 7,6 15,3 11,9 9,8 8 4 24 13 NE 1017,1 19 0,0
17.04.2019 19:00:00 19,0 7,7 20,1 11,7 9,8 9 5 24 13 NE 1016,9 55 0,0
17.04.2019 18:00:00 19,1 6,2 22,4 11,5 9,7 8 4 30 16 NNE 1017,1 45 0,0
17.04.2019 17:00:00 19,8 7,2 22,9 11,3 9,8 9 5 21 11 NE 1017,2 46 0,0
17.04.2019 16:00:00 18,9 8,5 21,1 11,0 9,8 6 4 19 10 NNE 1017,9 23 0,0
17.04.2019 15:00:00 18,1 7,5 21,4 10,7 9,7 4 2 20 11 NW 1018,4 31 0,0
17.04.2019 14:00:00 18,1 6,3 24,6 10,5 9,8 5 3 15 8 SE 1018,7 49 0,0
17.04.2019 13:00:00 16,9 7,8 22,1 10,4 9,7 6 3 13 7 WNW 1019,5 60 0,0
17.04.2019 12:00:00 15,9 7,4 21,8 10,3 9,7 4 2 14 8 WSW 1020,0 56 0,0
17.04.2019 11:00:00 14,9 7,7 17,8 10,3 9,7 4 2 13 7 SSE 1020,5 60 0,0
17.04.2019 10:00:00 13,3 7,5 13,9 10,3 9,7 3 2 8 4 SSW 1021,0 60 0,0
17.04.2019 09:00:00 9,9 9,3 5,6 10,4 9,7 0 0 6 3 N 1021,4 60 0,0
17.04.2019 08:00:00 7,4 6,8 3,4 10,5 9,7 0 0 3 2 N 1021,5 33 0,0
17.04.2019 07:00:00 7,5 6,9 3,1 10,5 9,7 0 0 4 2 N 1021,2 0 0,0
17.04.2019 06:00:00 8,1 7,3 4,1 10,5 9,7 3 1 5 3 NNE 1020,6 0 0,0
17.04.2019 05:00:00 8,8 8,0 7,0 10,6 9,7 3 1 4 2 NNE 1020,8 0 0,0
17.04.2019 04:00:00 8,9 8,0 7,4 10,6 9,8 0 0 5 3 N 1021,0 0 0,0
17.04.2019 03:00:00 9,2 8,1 8,2 10,6 9,8 0 0 3 2 N 1021,1 0 0,0
17.04.2019 02:00:00 9,6 7,9 8,4 10,6 9,7 0 0 10 6 N 1021,1 0 0,0
17.04.2019 01:00:00 9,6 8,2 8,0 10,7 9,8 2 1 10 6 WSW 1021,1 0 0,0
17.04.2019 00:00:00 9,6 8,7 8,4 10,7 9,7 2 1 5 3 SSW 1020,9 0 0,0
16.04.2019 23:00:00 9,7 8,8 8,8 10,7 9,7 0 0 8 5 N 1020,8 0 0,8
16.04.2019 22:00:00 10,0 8,8 9,1 10,6 9,7 3 1 7 4 SW 1020,7 0 0,0
16.04.2019 21:00:00 10,0 8,6 9,1 10,6 9,7 0 0 10 5 N 1020,1 0 0,0
16.04.2019 20:00:00 10,0 8,9 9,5 10,6 9,8 4 2 17 9 SSW 1019,6 0 0,2
16.04.2019 19:00:00 10,2 9,0 9,9 10,5 9,7 8 4 28 15 SSW 1019,3 0 0,0
16.04.2019 18:00:00 10,9 7,9 11,0 10,4 9,7 17 9 40 21 SW 1018,9 0 0,0
16.04.2019 17:00:00 11,7 7,6 10,8 10,3 9,7 13 7 30 16 SW 1018,4 0 0,0
16.04.2019 16:00:00 12,3 6,8 13,2 10,3 9,7 13 7 35 19 SSW 1018,2 0 0,0
16.04.2019 15:00:00 12,6 6,0 13,7 10,1 9,7 17 9 40 22 SW 1018,3 0 0,0
16.04.2019 14:00:00 12,9 5,6 14,0 10,0 9,7 18 10 42 23 SW 1017,9 0 0,0
16.04.2019 13:00:00 13,3 5,0 14,6 10,0 9,7 16 8 35 19 SW 1018,1 0 0,0
16.04.2019 12:00:00 13,0 4,4 14,0 9,9 9,7 16 8 38 20 SW 1018,1 11 0,0
16.04.2019 11:00:00 11,0 5,1 12,3 9,9 9,7 18 10 45 24 SW 1018,7 0 0,0
16.04.2019 10:00:00 11,8 4,0 12,4 10,0 9,7 21 11 45 24 SW 1018,1 0 0,0
16.04.2019 09:00:00 12,6 3,3 11,6 10,0 9,7 13 7 26 14 SW 1017,3 0 0,0
16.04.2019 08:00:00 11,7 3,2 8,2 10,1 9,7 7 4 21 11 SSW 1016,7 0 0,0
16.04.2019 07:00:00 9,0 3,0 2,8 10,2 9,7 2 1 11 6 SSW 1016,6 0 0,0
16.04.2019 06:00:00 7,7 2,6 2,7 10,3 9,7 0 0 9 5 N 1016,7 0 0,0
16.04.2019 05:00:00 5,9 1,6 2,7 10,4 9,7 0 0 8 4 N 1017,3 0 0,0
16.04.2019 04:00:00 5,2 1,5 1,2 10,5 9,8 0 0 6 3 N 1017,5 0 0,0
16.04.2019 03:00:00 5,7 1,4 1,0 10,5 9,7 4 2 7 4 NNE 1017,0 0 0,0
16.04.2019 02:00:00 6,5 1,8 1,5 10,6 9,8 0 0 4 2 N 1016,8 0 0,0
16.04.2019 01:00:00 8,3 1,7 2,7 10,6 9,7 0 0 9 5 N 1016,7 0 0,0
16.04.2019 00:00:00 8,5 1,6 3,3 10,7 9,8 0 0 6 3 N 1016,3 0 0,0
15.04.2019 23:00:00 9,2 3,0 3,5 10,6 9,8 2 1 7 4 ESE 1015,8 0 0,0
15.04.2019 22:00:00 9,6 3,1 4,0 10,6 9,8 2 1 9 5 NNE 1015,3 0 0,0
15.04.2019 21:00:00 11,3 2,8 6,1 10,5 9,8 2 1 11 6 NE 1015,0 1 0,0
15.04.2019 20:00:00 13,7 2,9 11,8 10,3 9,8 4 2 21 11 NE 1014,6 55 0,0
15.04.2019 19:00:00 15,4 3,5 17,7 10,1 9,8 7 4 24 13 NE 1014,8 55 0,0
15.04.2019 18:00:00 15,7 3,5 19,1 9,9 9,8 11 6 26 14 NNE 1015,0 58 0,0
15.04.2019 17:00:00 16,3 3,7 21,6 9,6 9,8 12 6 27 15 NNE 1015,2 60 0,0
15.04.2019 16:00:00 16,1 3,8 22,9 9,3 9,8 11 6 21 12 N 1016,2 60 0,0
15.04.2019 15:00:00 14,6 - - 9,1 9,8 12 6 - - N - - -
15.04.2019 14:00:00 14,0 1,9 24,1 8,9 9,8 5 3 13 7 NNW 1018,1 60 0,0
15.04.2019 13:00:00 13,2 2,4 23,2 8,8 9,8 4 2 16 8 SSW 1018,6 60 0,0
15.04.2019 12:00:00 11,3 2,6 20,8 8,7 9,8 6 3 18 10 N 1019,5 60 0,0
15.04.2019 11:00:00 9,8 1,9 17,1 8,7 9,7 5 3 20 11 NE 1020,2 60 0,0
15.04.2019 10:00:00 7,6 1,4 8,9 8,8 9,8 5 3 22 12 NE 1020,8 60 0,0
15.04.2019 09:00:00 4,9 1,0 2,0 8,9 9,8 7 4 17 9 NE 1021,6 60 0,0
15.04.2019 08:00:00 2,8 0,2 -0,4 9,0 9,8 4 2 18 10 NE 1021,9 28 0,0
15.04.2019 07:00:00 2,4 0,0 -0,7 9,1 9,8 4 2 19 11 NE 1022,1 0 0,0
15.04.2019 06:00:00 2,8 0,5 -1,3 9,2 9,8 5 3 19 11 ENE 1021,9 0 0,0
15.04.2019 05:00:00 1,9 0,3 -2,3 9,4 9,8 2 1 11 6 E 1022,1 0 0,0
15.04.2019 04:00:00 2,0 0,7 -2,1 9,4 9,8 3 1 12 6 ENE 1022,5 0 0,0
15.04.2019 03:00:00 1,9 0,6 -2,4 9,5 9,8 5 3 13 7 NE 1022,6 0 0,0
15.04.2019 02:00:00 2,1 0,6 -2,0 9,6 9,8 5 3 11 6 NE 1023,1 0 0,0
15.04.2019 01:00:00 2,2 0,7 -1,5 9,6 9,8 4 2 15 8 NE 1023,0 0 0,0
15.04.2019 00:00:00 2,4 0,8 -1,4 9,7 9,8 4 2 11 6 NE 1023,0 0 0,0
14.04.2019 23:00:00 2,9 0,6 -0,7 9,7 9,8 4 2 11 6 NNE 1022,7 0 0,0
14.04.2019 22:00:00 3,9 0,6 0,7 9,7 9,8 2 1 18 10 NE 1022,7 0 0,0
14.04.2019 21:00:00 5,4 0,8 3,3 9,6 9,8 4 2 14 8 ENE 1022,4 0 0,0
14.04.2019 20:00:00 6,5 0,4 5,7 9,6 9,8 4 2 15 8 NNE 1022,1 18 0,0
14.04.2019 19:00:00 7,6 -0,1 8,0 9,4 9,8 6 3 25 14 NE 1021,0 28 0,0
14.04.2019 18:00:00 8,1 -0,4 9,6 9,3 9,8 9 5 34 18 NE 1020,0 43 0,0
14.04.2019 17:00:00 8,7 -1,7 12,4 9,2 9,8 10 5 26 14 NE 1019,8 32 0,0
14.04.2019 16:00:00 8,2 -2,5 13,1 9,1 9,8 11 6 24 13 NNE 1020,1 12 0,0
14.04.2019 15:00:00 7,8 -3,4 12,6 9,0 9,8 9 5 23 12 NNE 1020,3 3 0,0
14.04.2019 14:00:00 7,0 -2,2 12,3 8,9 9,8 8 5 34 18 NNE 1020,2 3 0,0
14.04.2019 13:00:00 7,0 -1,7 7,9 8,9 9,8 12 6 25 14 NNE 1020,0 32 0,0
14.04.2019 12:00:00 5,3 -1,4 11,0 8,8 9,7 11 6 25 13 NNE 1020,5 41 0,0
14.04.2019 11:00:00 4,9 -0,1 6,9 9,0 9,8 4 2 23 12 ENE 1020,5 27 0,0
14.04.2019 10:00:00 1,9 -1,4 0,7 9,1 9,8 3 2 10 6 N 1020,8 29 0,0
14.04.2019 09:00:00 -0,3 -2,7 -3,7 9,3 9,8 5 3 9 5 NNE 1020,9 47 0,0
14.04.2019 08:00:00 -2,4 -3,7 -6,8 9,4 9,8 3 2 6 3 NNE 1021,3 5 0,0
14.04.2019 07:00:00 -2,7 -4,0 -7,1 9,6 9,8 0 0 4 2 N 1021,0 0 0,0
14.04.2019 06:00:00 -2,0 -3,7 -6,6 9,7 9,8 0 0 4 2 N 1020,8 0 0,0
14.04.2019 05:00:00 -1,8 -4,0 -6,4 9,8 9,8 0 0 4 2 N 1020,7 0 0,0
14.04.2019 04:00:00 -1,7 -4,4 -6,1 10,0 9,8 0 0 4 2 N 1020,7 0 0,0
14.04.2019 03:00:00 -0,8 -4,3 -5,5 10,1 9,8 0 0 3 2 N 1020,5 0 0,0
14.04.2019 02:00:00 0,0 -4,4 -5,2 10,3 9,8 0 0 6 4 N 1021,1 0 0,0
14.04.2019 01:00:00 -0,7 -4,8 -4,8 10,4 9,8 2 1 8 4 NNE 1021,4 0 0,0
14.04.2019 00:00:00 0,6 -5,0 -4,0 10,4 9,8 3 2 8 4 NNE 1021,4 0 0,0
13.04.2019 23:00:00 2,5 -6,4 -2,6 10,5 9,8 2 1 11 6 NE 1021,3 0 0,0
13.04.2019 22:00:00 4,0 -5,5 1,2 10,5 9,8 4 2 16 9 NE 1021,4 0 0,0
13.04.2019 21:00:00 5,0 -5,1 3,8 10,5 9,8 11 6 22 12 NNE 1021,1 0 0,0
13.04.2019 20:00:00 5,9 -4,3 5,0 10,5 9,7 12 7 24 13 NNE 1020,4 1 0,0
13.04.2019 19:00:00 6,8 -3,7 7,6 10,5 9,7 12 7 24 13 NNE 1019,9 9 0,0
13.04.2019 18:00:00 7,7 -2,9 9,8 10,4 9,7 9 5 29 16 NNE 1019,8 21 0,0
13.04.2019 17:00:00 7,5 -2,3 10,0 10,3 9,7 14 7 29 15 NNW 1019,8 0 0,0
13.04.2019 16:00:00 8,0 -2,1 11,8 10,2 9,7 11 6 24 13 N 1019,6 0 0,0
13.04.2019 15:00:00 7,7 -0,5 9,9 10,1 9,7 11 6 23 12 N 1019,9 0 0,0
13.04.2019 14:00:00 7,5 -0,7 10,6 10,0 9,7 7 4 23 12 N 1019,8 0 0,0
13.04.2019 13:00:00 7,5 0,0 11,7 10,0 9,7 9 5 19 10 N 1019,8 19 0,0
13.04.2019 12:00:00 7,5 0,5 11,1 10,0 9,7 5 3 18 10 N 1019,9 43 0,0
13.04.2019 11:00:00 7,0 -0,9 14,5 10,0 9,7 5 3 16 8 NNE 1020,2 60 0,0
13.04.2019 10:00:00 6,1 -0,4 5,8 10,1 9,7 3 1 10 5 E 1020,2 54 0,0
13.04.2019 09:00:00 3,0 -1,0 1,3 10,3 9,7 0 0 5 3 N 1020,7 16 0,0
13.04.2019 08:00:00 1,4 -1,0 -2,3 10,4 9,7 0 0 4 2 N 1020,7 0 0,0
13.04.2019 07:00:00 0,5 -1,7 -3,0 10,5 9,7 0 0 5 3 N 1020,4 0 0,0
13.04.2019 06:00:00 1,0 -1,6 -2,9 10,6 9,7 3 1 7 4 NE 1019,8 0 0,0
13.04.2019 05:00:00 1,9 -1,4 -2,3 10,7 9,7 4 2 7 4 NNE 1019,8 0 0,0
13.04.2019 04:00:00 2,9 -1,3 -0,3 10,8 9,7 0 0 7 4 N 1019,7 0 0,0
13.04.2019 03:00:00 3,3 -1,1 0,2 10,9 9,7 3 1 8 4 N 1020,1 0 0,0
13.04.2019 02:00:00 3,1 -1,5 -1,1 11,0 9,7 5 3 12 6 NNE 1020,3 0 0,0

tt = Température de l'air
td = dewpoint
tt 5cm = Température de l'air 5cm
tt -20cm = Température de l'air -20cm
tt -100cm = Température de l'air -100cm
ff = Vitesse du vent
fx = gusts
dd = Direction du vent
ppp = reduced air pressure
sd = Ensoleillement
rr = Quantités de précipitations

stations d'obs. à proximité